createdAt,value
2023-06-14T00:00:36.893Z,540.00
2023-06-14T00:01:36.933Z,542.00
2023-06-14T00:02:36.970Z,542.00
2023-06-14T00:03:37.009Z,541.00
2023-06-14T00:04:36.921Z,540.00
2023-06-14T00:05:36.882Z,540.00
2023-06-14T00:06:36.832Z,538.00
2023-06-14T00:07:36.821Z,538.00
2023-06-14T00:08:36.931Z,538.00
2023-06-14T00:09:36.806Z,537.00
2023-06-14T00:10:36.788Z,538.00
2023-06-14T00:11:36.777Z,541.00
2023-06-14T00:12:36.759Z,542.00
2023-06-14T00:13:36.778Z,541.00
2023-06-14T00:14:36.752Z,543.00
2023-06-14T00:15:36.706Z,544.00
2023-06-14T00:16:36.767Z,544.00
2023-06-14T00:17:36.735Z,541.00
2023-06-14T00:18:36.671Z,541.00
2023-06-14T00:19:36.683Z,541.00
2023-06-14T00:20:36.666Z,542.00
2023-06-14T00:21:36.658Z,540.00
2023-06-14T00:22:36.640Z,541.00
2023-06-14T00:23:36.658Z,541.00
2023-06-14T00:24:36.770Z,542.00
2023-06-14T00:25:36.627Z,541.00
2023-06-14T00:26:36.628Z,540.00
2023-06-14T00:27:36.644Z,541.00
2023-06-14T00:28:36.616Z,541.00
2023-06-14T00:29:36.587Z,540.00
2023-06-14T00:30:36.569Z,540.00
2023-06-14T00:31:36.575Z,540.00
2023-06-14T00:32:36.638Z,539.00
2023-06-14T00:33:36.572Z,537.00
2023-06-14T00:34:36.569Z,538.00
2023-06-14T00:35:36.537Z,538.00
2023-06-14T00:36:36.594Z,538.00
2023-06-14T00:37:36.604Z,538.00
2023-06-14T00:38:36.650Z,537.00
2023-06-14T00:39:36.672Z,539.00
2023-06-14T00:40:36.692Z,538.00
2023-06-14T00:41:36.724Z,537.00
2023-06-14T00:42:36.754Z,535.00
2023-06-14T00:43:36.835Z,537.00
2023-06-14T00:44:36.944Z,535.00
2023-06-14T00:45:36.937Z,536.00
2023-06-14T00:46:36.903Z,536.00
2023-06-14T00:47:36.993Z,534.00
2023-06-14T00:48:36.930Z,535.00
2023-06-14T00:49:36.975Z,534.00
2023-06-14T00:50:37.022Z,534.00
2023-06-14T00:51:37.042Z,533.00
2023-06-14T00:52:37.129Z,531.00
2023-06-14T00:53:37.295Z,529.00
2023-06-14T00:54:37.229Z,530.00
2023-06-14T00:55:37.176Z,532.00
2023-06-14T00:56:37.224Z,533.00
2023-06-14T00:57:37.222Z,532.00
2023-06-14T00:58:37.272Z,531.00
2023-06-14T00:59:37.289Z,530.00
2023-06-14T01:00:37.321Z,530.00
2023-06-14T01:01:37.379Z,532.00
2023-06-14T01:02:37.452Z,532.00
2023-06-14T01:03:37.497Z,533.00
2023-06-14T01:04:37.470Z,534.00
2023-06-14T01:05:37.497Z,536.00
2023-06-14T01:06:37.546Z,536.00
2023-06-14T01:07:37.585Z,537.00
2023-06-14T01:08:37.615Z,535.00
2023-06-14T01:09:37.644Z,535.00
2023-06-14T01:10:37.656Z,535.00
2023-06-14T01:11:37.692Z,538.00
2023-06-14T01:12:37.722Z,539.00
2023-06-14T01:13:37.768Z,540.00
2023-06-14T01:14:37.817Z,539.00
2023-06-14T01:15:37.831Z,538.00
2023-06-14T01:16:37.893Z,540.00
2023-06-14T01:17:37.958Z,539.00
2023-06-14T01:18:37.941Z,538.00
2023-06-14T01:19:37.986Z,537.00
2023-06-14T01:20:38.305Z,537.00
2023-06-14T01:21:38.047Z,535.00
2023-06-14T01:22:38.080Z,532.00
2023-06-14T01:23:38.115Z,533.00
2023-06-14T01:24:38.156Z,534.00
2023-06-14T01:25:38.185Z,536.00
2023-06-14T01:26:38.224Z,539.00
2023-06-14T01:27:38.265Z,543.00
2023-06-14T01:28:38.324Z,544.00
2023-06-14T01:29:38.333Z,545.00
2023-06-14T01:30:38.372Z,546.00
2023-06-14T01:31:38.406Z,546.00
2023-06-14T01:32:38.511Z,544.00
2023-06-14T01:33:38.560Z,544.00
2023-06-14T01:34:38.547Z,543.00
2023-06-14T01:35:38.541Z,544.00
2023-06-14T01:36:38.915Z,543.00
2023-06-14T01:37:38.617Z,541.00
2023-06-14T01:38:38.713Z,541.00
2023-06-14T01:39:38.694Z,542.00
2023-06-14T01:40:38.856Z,542.00
2023-06-14T01:41:38.777Z,542.00
2023-06-14T01:42:38.800Z,543.00
2023-06-14T01:43:38.853Z,541.00
2023-06-14T01:44:38.868Z,543.00
2023-06-14T01:45:38.904Z,544.00
2023-06-14T01:46:39.002Z,545.00
2023-06-14T01:47:39.035Z,545.00
2023-06-14T01:48:39.040Z,546.00
2023-06-14T01:49:39.072Z,547.00
2023-06-14T01:50:39.116Z,547.00
2023-06-14T01:51:39.153Z,548.00
2023-06-14T01:52:39.186Z,549.00
2023-06-14T01:53:39.246Z,550.00
2023-06-14T01:54:39.276Z,549.00
2023-06-14T01:55:39.347Z,548.00
2023-06-14T01:56:39.357Z,546.00
2023-06-14T01:57:39.331Z,545.00
2023-06-14T01:58:39.330Z,544.00
2023-06-14T01:59:39.335Z,543.00
2023-06-14T02:00:39.328Z,541.00
2023-06-14T02:01:39.342Z,540.00
2023-06-14T02:02:39.328Z,540.00
2023-06-14T02:03:39.320Z,540.00
2023-06-14T02:04:39.244Z,536.00
2023-06-14T02:05:39.284Z,537.00
2023-06-14T02:06:39.234Z,538.00
2023-06-14T02:07:39.261Z,537.00
2023-06-14T02:08:39.312Z,539.00
2023-06-14T02:09:39.352Z,538.00
2023-06-14T02:10:39.376Z,538.00
2023-06-14T02:11:39.421Z,539.00
2023-06-14T02:12:39.456Z,537.00
2023-06-14T02:13:39.494Z,537.00
2023-06-14T02:14:39.570Z,538.00
2023-06-14T02:15:39.625Z,540.00
2023-06-14T02:16:39.656Z,540.00
2023-06-14T02:17:39.680Z,540.00
2023-06-14T02:18:39.709Z,537.00
2023-06-14T02:19:39.748Z,536.00
2023-06-14T02:20:39.811Z,535.00
2023-06-14T02:21:39.851Z,537.00
2023-06-14T02:22:39.885Z,537.00
2023-06-14T02:23:39.992Z,537.00
2023-06-14T02:24:39.989Z,536.00
2023-06-14T02:25:40.019Z,538.00
2023-06-14T02:26:40.070Z,538.00
2023-06-14T02:27:40.098Z,538.00
2023-06-14T02:28:40.170Z,535.00
2023-06-14T02:29:40.190Z,536.00
2023-06-14T02:30:40.206Z,536.00
2023-06-14T02:31:40.312Z,539.00
2023-06-14T02:32:40.327Z,539.00
2023-06-14T02:33:40.346Z,539.00
2023-06-14T02:34:40.390Z,541.00
2023-06-14T02:35:40.447Z,541.00
2023-06-14T02:36:40.490Z,541.00
2023-06-14T02:37:40.545Z,539.00
2023-06-14T02:38:40.606Z,538.00
2023-06-14T02:39:40.632Z,538.00
2023-06-14T02:40:40.705Z,538.00
2023-06-14T02:41:40.739Z,538.00
2023-06-14T02:42:40.796Z,539.00
2023-06-14T02:43:40.851Z,541.00
2023-06-14T02:44:40.889Z,543.00
2023-06-14T02:45:40.923Z,545.00
2023-06-14T02:46:40.991Z,542.00
2023-06-14T02:47:41.094Z,542.00
2023-06-14T02:48:41.196Z,543.00
2023-06-14T02:49:41.120Z,542.00
2023-06-14T02:50:41.193Z,539.00
2023-06-14T02:51:41.219Z,539.00
2023-06-14T02:52:41.257Z,538.00
2023-06-14T02:53:41.326Z,538.00
2023-06-14T02:54:41.364Z,537.00
2023-06-14T02:55:41.624Z,538.00
2023-06-14T02:56:41.447Z,539.00
2023-06-14T02:57:41.482Z,540.00
2023-06-14T02:58:41.592Z,539.00
2023-06-14T02:59:41.582Z,542.00
2023-06-14T03:00:41.646Z,541.00
2023-06-14T03:01:41.688Z,541.00
2023-06-14T03:02:41.773Z,540.00
2023-06-14T03:03:41.785Z,542.00
2023-06-14T03:04:41.827Z,543.00
2023-06-14T03:05:41.888Z,544.00
2023-06-14T03:06:41.928Z,544.00
2023-06-14T03:07:42.061Z,544.00
2023-06-14T03:08:42.050Z,544.00
2023-06-14T03:09:42.107Z,542.00
2023-06-14T03:10:42.140Z,542.00
2023-06-14T03:11:42.191Z,544.00
2023-06-14T03:12:42.241Z,545.00
2023-06-14T03:13:42.280Z,547.00
2023-06-14T03:14:42.348Z,547.00
2023-06-14T03:15:42.413Z,547.00
2023-06-14T03:16:42.533Z,547.00
2023-06-14T03:17:42.527Z,546.00
2023-06-14T03:18:42.558Z,547.00
2023-06-14T03:19:42.664Z,548.00
2023-06-14T03:20:42.665Z,547.00
2023-06-14T03:21:42.730Z,545.00
2023-06-14T03:22:42.774Z,546.00
2023-06-14T03:23:42.839Z,544.00
2023-06-14T03:24:42.904Z,545.00
2023-06-14T03:25:42.918Z,546.00
2023-06-14T03:26:42.992Z,546.00
2023-06-14T03:27:43.032Z,544.00
2023-06-14T03:28:43.092Z,545.00
2023-06-14T03:29:43.138Z,544.00
2023-06-14T03:30:43.213Z,544.00
2023-06-14T03:31:43.232Z,543.00
2023-06-14T03:32:43.365Z,542.00
2023-06-14T03:33:43.333Z,539.00
2023-06-14T03:34:43.393Z,538.00
2023-06-14T03:35:43.468Z,537.00
2023-06-14T03:36:43.506Z,537.00
2023-06-14T03:37:43.549Z,537.00
2023-06-14T03:38:43.617Z,539.00
2023-06-14T03:39:43.653Z,539.00
2023-06-14T03:40:43.694Z,542.00
2023-06-14T03:41:43.760Z,543.00
2023-06-14T03:42:43.800Z,546.00
2023-06-14T03:43:43.869Z,547.00
2023-06-14T03:44:43.927Z,547.00
2023-06-14T03:45:43.948Z,547.00
2023-06-14T03:46:44.005Z,547.00
2023-06-14T03:47:44.103Z,546.00
2023-06-14T03:48:44.183Z,546.00
2023-06-14T03:49:44.156Z,547.00
2023-06-14T03:50:44.231Z,549.00
2023-06-14T03:51:44.269Z,550.00
2023-06-14T03:52:44.306Z,549.00
2023-06-14T03:54:02.399Z,548.00
2023-06-14T03:56:44.360Z,551.00
2023-06-14T03:57:44.337Z,551.00
2023-06-14T03:58:44.344Z,550.00
2023-06-14T03:59:44.340Z,548.00
2023-06-14T04:00:44.406Z,545.00
2023-06-14T04:01:44.342Z,544.00
2023-06-14T04:02:44.401Z,543.00
2023-06-14T04:03:44.520Z,544.00
2023-06-14T04:04:44.364Z,544.00
2023-06-14T04:05:44.424Z,545.00
2023-06-14T04:06:44.389Z,544.00
2023-06-14T04:07:44.385Z,545.00
2023-06-14T04:08:44.387Z,544.00
2023-06-14T04:09:44.389Z,545.00
2023-06-14T04:10:44.390Z,545.00
2023-06-14T04:11:44.424Z,544.00
2023-06-14T04:12:44.581Z,545.00
2023-06-14T04:13:44.398Z,546.00
2023-06-14T04:14:44.402Z,545.00
2023-06-14T04:15:44.408Z,546.00
2023-06-14T04:16:44.445Z,548.00
2023-06-14T04:17:44.450Z,548.00
2023-06-14T04:18:44.423Z,550.00
2023-06-14T04:19:44.399Z,550.00
2023-06-14T04:20:44.413Z,550.00
2023-06-14T04:21:44.504Z,549.00
2023-06-14T04:22:44.589Z,547.00
2023-06-14T04:23:44.453Z,546.00
2023-06-14T04:24:44.414Z,544.00
2023-06-14T04:25:44.414Z,543.00
2023-06-14T04:26:44.429Z,541.00
2023-06-14T04:27:44.414Z,541.00
2023-06-14T04:28:44.416Z,540.00
2023-06-14T04:29:44.421Z,539.00
2023-06-14T04:30:44.470Z,540.00
2023-06-14T04:31:44.421Z,540.00
2023-06-14T04:32:44.472Z,538.00
2023-06-14T04:33:44.847Z,538.00
2023-06-14T04:34:44.438Z,537.00
2023-06-14T04:35:44.421Z,538.00
2023-06-14T04:36:44.413Z,537.00
2023-06-14T04:37:44.416Z,541.00
2023-06-14T04:38:44.399Z,543.00
2023-06-14T04:41:03.079Z,540.00
2023-06-14T04:42:03.049Z,542.00
2023-06-14T04:43:03.028Z,543.00
2023-06-14T04:44:03.004Z,542.00
2023-06-14T04:45:02.981Z,542.00
2023-06-14T04:46:02.984Z,544.00
2023-06-14T04:47:02.948Z,542.00
2023-06-14T04:48:02.926Z,539.00
2023-06-14T04:49:02.924Z,537.00
2023-06-14T04:50:02.874Z,537.00
2023-06-14T04:51:02.854Z,537.00
2023-06-14T04:52:03.289Z,536.00
2023-06-14T04:53:02.813Z,535.00
2023-06-14T04:54:02.794Z,536.00
2023-06-14T04:55:02.782Z,536.00
2023-06-14T04:56:02.758Z,537.00
2023-06-14T04:57:02.757Z,535.00
2023-06-14T04:58:02.738Z,535.00
2023-06-14T04:59:02.730Z,534.00
2023-06-14T05:00:02.751Z,536.00
2023-06-14T05:01:02.798Z,535.00
2023-06-14T05:02:02.704Z,534.00
2023-06-14T05:03:02.753Z,534.00
2023-06-14T05:04:02.678Z,538.00
2023-06-14T05:05:02.627Z,539.00
2023-06-14T05:06:02.607Z,547.00
2023-06-14T05:07:02.596Z,551.00
2023-06-14T05:08:02.567Z,553.00
2023-06-14T05:09:02.560Z,553.00
2023-06-14T05:10:02.596Z,552.00
2023-06-14T05:11:02.676Z,553.00
2023-06-14T05:12:02.713Z,552.00
2023-06-14T05:13:02.770Z,554.00
2023-06-14T05:14:02.806Z,555.00
2023-06-14T05:15:02.846Z,555.00
2023-06-14T05:16:02.960Z,554.00
2023-06-14T05:17:02.941Z,554.00
2023-06-14T05:18:03.023Z,556.00
2023-06-14T05:19:03.060Z,556.00
2023-06-14T05:20:03.090Z,555.00
2023-06-14T05:21:03.139Z,555.00
2023-06-14T05:22:03.191Z,557.00
2023-06-14T05:23:03.220Z,556.00
2023-06-14T05:24:03.338Z,557.00
2023-06-14T05:25:03.363Z,558.00
2023-06-14T05:26:03.368Z,560.00
2023-06-14T05:27:03.448Z,561.00
2023-06-14T05:28:03.397Z,559.00
2023-06-14T05:29:03.370Z,558.00
2023-06-14T05:30:03.351Z,561.00
2023-06-14T05:31:03.401Z,579.00
2023-06-14T05:32:03.368Z,592.00
2023-06-14T05:33:03.322Z,670.00
2023-06-14T05:34:03.385Z,677.00
2023-06-14T05:35:03.259Z,746.00
2023-06-14T05:36:03.328Z,738.00
2023-06-14T05:37:03.263Z,733.00
2023-06-14T05:38:03.228Z,738.00
2023-06-14T05:39:03.215Z,796.00
2023-06-14T05:40:03.216Z,822.00
2023-06-14T05:41:03.176Z,818.00
2023-06-14T05:42:03.197Z,802.00
2023-06-14T05:43:03.101Z,800.00
2023-06-14T05:44:03.137Z,800.00
2023-06-14T05:45:03.106Z,799.00
2023-06-14T05:46:03.005Z,967.00
2023-06-14T05:47:03.126Z,946.00
2023-06-14T05:48:03.046Z,934.00
2023-06-14T05:49:02.904Z,946.00
2023-06-14T05:50:02.917Z,1018.00
2023-06-14T05:51:02.975Z,1030.00
2023-06-14T05:52:03.005Z,1046.00
2023-06-14T05:53:03.165Z,1065.00
2023-06-14T05:54:03.032Z,1175.00
2023-06-14T05:55:03.044Z,1184.00
2023-06-14T05:56:03.003Z,1176.00
2023-06-14T05:57:02.973Z,1188.00
2023-06-14T05:58:02.945Z,1201.00
2023-06-14T05:59:02.893Z,1226.00
2023-06-14T06:00:02.871Z,1260.00
2023-06-14T06:01:02.870Z,1299.00
2023-06-14T06:02:02.953Z,1333.00
2023-06-14T06:03:02.819Z,1352.00
2023-06-14T06:04:02.829Z,1355.00
2023-06-14T06:05:02.693Z,1348.00
2023-06-14T06:06:03.277Z,1345.00
2023-06-14T06:07:02.596Z,1352.00
2023-06-14T06:08:02.568Z,1364.00
2023-06-14T06:09:02.529Z,1403.00
2023-06-14T06:10:03.327Z,1430.00
2023-06-14T06:11:02.441Z,1456.00
2023-06-14T06:12:02.420Z,1470.00
2023-06-14T06:13:02.541Z,1478.00
2023-06-14T06:14:02.370Z,1487.00
2023-06-14T06:15:02.356Z,1509.00
2023-06-14T06:16:02.337Z,1526.00
2023-06-14T06:17:02.429Z,1597.00
2023-06-14T06:18:02.343Z,1578.00
2023-06-14T06:19:02.277Z,1558.00
2023-06-14T06:20:02.244Z,1559.00
2023-06-14T06:21:02.244Z,1569.00
2023-06-14T06:22:02.241Z,1568.00
2023-06-14T06:23:02.165Z,1577.00
2023-06-14T06:24:02.188Z,1584.00
2023-06-14T06:25:02.110Z,1593.00
2023-06-14T06:26:02.108Z,1600.00
2023-06-14T06:27:02.054Z,1611.00
2023-06-14T06:28:02.019Z,1618.00
2023-06-14T06:29:01.953Z,1663.00
2023-06-14T06:30:01.926Z,1688.00
2023-06-14T06:31:04.730Z,1697.00
2023-06-14T06:32:01.830Z,1697.00
2023-06-14T06:33:01.859Z,1691.00
2023-06-14T06:34:01.714Z,1677.00
2023-06-14T06:35:01.681Z,1666.00
2023-06-14T06:36:01.646Z,1669.00
2023-06-14T06:37:01.594Z,1678.00
2023-06-14T06:38:01.544Z,1683.00
2023-06-14T06:39:01.487Z,1686.00
2023-06-14T06:40:01.452Z,1699.00
2023-06-14T06:41:01.388Z,1722.00
2023-06-14T06:42:01.361Z,1690.00
2023-06-14T06:43:01.279Z,1699.00
2023-06-14T06:44:01.229Z,1684.00
2023-06-14T06:45:01.293Z,1682.00
2023-06-14T06:46:01.189Z,1680.00
2023-06-14T06:47:01.109Z,1685.00
2023-06-14T06:48:01.056Z,1694.00
2023-06-14T06:49:01.025Z,1789.00
2023-06-14T06:50:01.047Z,1781.00
2023-06-14T06:51:00.922Z,1769.00
2023-06-14T06:52:00.905Z,1753.00
2023-06-14T06:53:00.853Z,1729.00
2023-06-14T06:54:00.802Z,1672.00
2023-06-14T06:55:00.791Z,1653.00
2023-06-14T06:56:00.731Z,1643.00
2023-06-14T06:57:00.693Z,1626.00
2023-06-14T06:58:00.627Z,1554.00
2023-06-14T06:59:00.601Z,1559.00
2023-06-14T07:00:00.553Z,1561.00
2023-06-14T07:01:00.522Z,1557.00
2023-06-14T07:02:00.519Z,1554.00
2023-06-14T07:03:00.776Z,1537.00
2023-06-14T07:04:00.419Z,1529.00
2023-06-14T07:05:00.362Z,1519.00
2023-06-14T07:06:00.395Z,1500.00
2023-06-14T07:07:00.303Z,1468.00
2023-06-14T07:08:00.240Z,1440.00
2023-06-14T07:09:00.787Z,1423.00
2023-06-14T07:10:00.204Z,1415.00
2023-06-14T07:11:00.179Z,1416.00
2023-06-14T07:12:00.152Z,1405.00
2023-06-14T07:13:00.074Z,1388.00
2023-06-14T07:14:00.068Z,1380.00
2023-06-14T07:15:00.006Z,1378.00
2023-06-14T07:16:00.040Z,1377.00
2023-06-14T07:16:59.941Z,1373.00
2023-06-14T07:17:59.894Z,1368.00
2023-06-14T07:18:59.836Z,1362.00
2023-06-14T07:19:59.823Z,1364.00
2023-06-14T07:20:59.923Z,1360.00
2023-06-14T07:21:59.807Z,1351.00
2023-06-14T07:23:00.294Z,1341.00
2023-06-14T07:23:59.688Z,1333.00
2023-06-14T07:24:59.620Z,1331.00
2023-06-14T07:25:59.595Z,1334.00
2023-06-14T07:26:59.582Z,1333.00
2023-06-14T07:27:59.523Z,1345.00
2023-06-14T07:28:59.496Z,1369.00
2023-06-14T07:29:59.465Z,1392.00
2023-06-14T07:30:59.395Z,1405.00
2023-06-14T07:31:59.356Z,1421.00
2023-06-14T07:32:59.417Z,1423.00
2023-06-14T07:33:59.354Z,1455.00
2023-06-14T07:34:59.250Z,1504.00
2023-06-14T07:35:59.260Z,1469.00
2023-06-14T07:36:59.209Z,1374.00
2023-06-14T07:37:59.121Z,1367.00
2023-06-14T07:38:59.087Z,1276.00
2023-06-14T07:39:59.034Z,1260.00
2023-06-14T07:40:59.061Z,1213.00
2023-06-14T07:41:59.040Z,1223.00
2023-06-14T07:42:59.004Z,1171.00
2023-06-14T07:43:58.966Z,1187.00
2023-06-14T07:44:58.934Z,1208.00
2023-06-14T07:46:07.464Z,1232.00
2023-06-14T07:46:59.840Z,1115.00
2023-06-14T07:47:58.923Z,1096.00
2023-06-14T07:48:58.885Z,993.00
2023-06-14T07:49:58.746Z,937.00
2023-06-14T07:50:58.703Z,923.00
2023-06-14T07:51:58.677Z,910.00
2023-06-14T07:52:58.682Z,898.00
2023-06-14T07:53:58.577Z,867.00
2023-06-14T07:54:58.551Z,831.00
2023-06-14T07:55:58.512Z,822.00
2023-06-14T07:56:58.482Z,819.00
2023-06-14T07:57:58.439Z,816.00
2023-06-14T07:58:58.420Z,810.00
2023-06-14T07:59:59.325Z,804.00
2023-06-14T08:00:58.312Z,801.00
2023-06-14T08:01:58.278Z,802.00
2023-06-14T08:03:01.167Z,802.00
2023-06-14T08:03:58.351Z,804.00
2023-06-14T08:04:58.152Z,800.00
2023-06-14T08:05:58.136Z,795.00
2023-06-14T08:06:58.192Z,795.00
2023-06-14T08:07:58.047Z,793.00
2023-06-14T08:08:57.977Z,792.00
2023-06-14T08:09:57.964Z,795.00
2023-06-14T08:10:57.997Z,793.00
2023-06-14T08:11:58.034Z,774.00
2023-06-14T08:12:57.869Z,766.00
2023-06-14T08:13:58.399Z,769.00
2023-06-14T08:15:12.444Z,780.00
2023-06-14T08:15:58.736Z,710.00
2023-06-14T08:16:57.788Z,728.00
2023-06-14T08:17:57.728Z,734.00
2023-06-14T08:18:57.665Z,687.00
2023-06-14T08:19:57.551Z,751.00
2023-06-14T08:20:57.536Z,715.00
2023-06-14T08:21:57.776Z,714.00
2023-06-14T08:22:57.494Z,675.00
2023-06-14T08:23:57.547Z,689.00
2023-06-14T08:24:57.444Z,699.00
2023-06-14T08:25:57.557Z,628.00
2023-06-14T08:26:57.398Z,687.00
2023-06-14T08:27:57.322Z,686.00
2023-06-14T08:28:57.287Z,690.00
2023-06-14T08:29:57.283Z,707.00
2023-06-14T08:30:57.235Z,702.00
2023-06-14T08:31:57.258Z,667.00
2023-06-14T08:33:10.272Z,692.00
2023-06-14T08:33:58.293Z,622.00
2023-06-14T08:35:05.288Z,645.00
2023-06-14T08:35:58.145Z,635.00
2023-06-14T08:36:57.128Z,626.00
2023-06-14T08:37:57.107Z,623.00
2023-06-14T08:38:57.068Z,639.00
2023-06-14T08:39:57.067Z,631.00
2023-06-14T08:40:57.254Z,635.00
2023-06-14T08:41:57.058Z,600.00
2023-06-14T08:42:57.036Z,627.00
2023-06-14T08:43:57.008Z,601.00
2023-06-14T08:44:56.975Z,603.00
2023-06-14T08:45:56.982Z,616.00
2023-06-14T08:46:57.012Z,590.00
2023-06-14T08:47:57.104Z,578.00
2023-06-14T08:48:56.897Z,577.00
2023-06-14T08:49:56.914Z,593.00
2023-06-14T08:50:56.865Z,602.00
2023-06-14T08:51:56.849Z,595.00
2023-06-14T08:52:56.823Z,604.00
2023-06-14T08:53:56.823Z,599.00
2023-06-14T08:54:56.791Z,576.00
2023-06-14T08:55:56.786Z,566.00
2023-06-14T08:56:56.785Z,560.00
2023-06-14T08:57:57.335Z,559.00
2023-06-14T08:58:56.762Z,568.00
2023-06-14T08:59:56.758Z,551.00
2023-06-14T09:00:56.834Z,543.00
2023-06-14T09:02:11.760Z,548.00
2023-06-14T09:02:57.894Z,546.00
2023-06-14T09:03:56.786Z,566.00
2023-06-14T09:04:56.742Z,600.00
2023-06-14T09:05:56.785Z,563.00
2023-06-14T09:06:56.721Z,579.00
2023-06-14T09:07:56.676Z,580.00
2023-06-14T09:08:56.660Z,591.00
2023-06-14T09:10:07.059Z,567.00
2023-06-14T09:10:57.594Z,575.00
2023-06-14T09:11:56.560Z,559.00
2023-06-14T09:12:56.536Z,572.00
2023-06-14T09:13:56.556Z,559.00
2023-06-14T09:14:56.499Z,566.00
2023-06-14T09:15:56.456Z,549.00
2023-06-14T09:16:56.451Z,537.00
2023-06-14T09:17:56.429Z,539.00
2023-06-14T09:18:58.057Z,562.00
2023-06-14T09:19:56.359Z,562.00
2023-06-14T09:20:56.320Z,549.00
2023-06-14T09:21:56.292Z,556.00
2023-06-14T09:22:56.260Z,553.00
2023-06-14T09:23:56.271Z,557.00
2023-06-14T09:24:56.194Z,554.00
2023-06-14T09:25:56.198Z,557.00
2023-06-14T09:26:56.174Z,568.00
2023-06-14T09:27:56.134Z,569.00
2023-06-14T09:28:56.095Z,563.00
2023-06-14T09:29:56.075Z,568.00
2023-06-14T09:30:56.161Z,555.00
2023-06-14T09:31:56.031Z,549.00
2023-06-14T09:32:56.039Z,555.00
2023-06-14T09:33:55.945Z,547.00
2023-06-14T09:34:55.939Z,537.00
2023-06-14T09:35:55.899Z,544.00
2023-06-14T09:36:55.888Z,560.00
2023-06-14T09:37:55.825Z,558.00
2023-06-14T09:38:55.791Z,525.00
2023-06-14T09:39:55.767Z,540.00
2023-06-14T09:40:55.737Z,540.00
2023-06-14T09:41:55.708Z,534.00
2023-06-14T09:42:55.818Z,549.00
2023-06-14T09:43:55.733Z,607.00
2023-06-14T09:44:55.640Z,663.00
2023-06-14T09:45:55.574Z,476.00
2023-06-14T09:46:55.577Z,466.00
2023-06-14T09:48:55.594Z,508.00
2023-06-14T09:49:55.525Z,497.00
2023-06-14T09:50:55.480Z,527.00
2023-06-14T09:51:55.487Z,492.00
2023-06-14T09:52:55.480Z,519.00
2023-06-14T09:53:55.487Z,525.00
2023-06-14T09:54:55.440Z,525.00
2023-06-14T09:55:55.430Z,546.00
2023-06-14T09:56:55.406Z,559.00
2023-06-14T09:57:55.391Z,572.00
2023-06-14T09:59:06.888Z,613.00
2023-06-14T09:59:56.351Z,619.00
2023-06-14T10:00:55.292Z,634.00
2023-06-14T10:01:55.314Z,655.00
2023-06-14T10:02:55.317Z,668.00
2023-06-14T10:04:06.849Z,677.00
2023-06-14T10:04:56.225Z,672.00
2023-06-14T10:05:55.160Z,720.00
2023-06-14T10:06:55.168Z,715.00
2023-06-14T10:07:55.114Z,709.00
2023-06-14T10:08:55.066Z,728.00
2023-06-14T10:09:55.068Z,704.00
2023-06-14T10:10:55.032Z,674.00
2023-06-14T10:11:54.999Z,673.00
2023-06-14T10:12:54.968Z,741.00
2023-06-14T10:13:54.938Z,721.00
2023-06-14T10:14:56.516Z,753.00
2023-06-14T10:15:54.954Z,809.00
2023-06-14T10:16:55.055Z,830.00
2023-06-14T10:17:54.833Z,824.00
2023-06-14T10:18:54.775Z,813.00
2023-06-14T10:19:54.744Z,821.00
2023-06-14T10:20:54.719Z,826.00
2023-06-14T10:21:54.717Z,825.00
2023-06-14T10:22:54.699Z,821.00
2023-06-14T10:23:54.827Z,837.00
2023-06-14T10:24:54.654Z,853.00
2023-06-14T10:25:54.789Z,751.00
2023-06-14T10:26:55.514Z,801.00
2023-06-14T10:27:54.566Z,886.00
2023-06-14T10:28:54.486Z,893.00
2023-06-14T10:29:54.413Z,898.00
2023-06-14T10:30:54.367Z,841.00
2023-06-14T10:31:54.328Z,833.00
2023-06-14T10:32:54.294Z,846.00
2023-06-14T10:33:54.221Z,849.00
2023-06-14T10:34:54.230Z,798.00
2023-06-14T10:35:54.155Z,767.00
2023-06-14T10:36:54.119Z,766.00
2023-06-14T10:37:54.096Z,760.00
2023-06-14T10:38:54.093Z,818.00
2023-06-14T10:39:54.095Z,818.00
2023-06-14T10:40:54.116Z,804.00
2023-06-14T10:41:54.150Z,799.00
2023-06-14T10:42:54.139Z,794.00
2023-06-14T10:43:54.138Z,782.00
2023-06-14T10:44:54.149Z,771.00
2023-06-14T10:45:54.198Z,755.00
2023-06-14T10:46:54.129Z,745.00
2023-06-14T10:47:54.201Z,739.00
2023-06-14T10:48:54.103Z,736.00
2023-06-14T10:49:54.116Z,733.00
2023-06-14T10:50:54.076Z,729.00
2023-06-14T10:51:54.126Z,722.00
2023-06-14T10:52:54.094Z,717.00
2023-06-14T10:53:54.049Z,713.00
2023-06-14T10:54:54.046Z,709.00
2023-06-14T10:55:54.040Z,707.00
2023-06-14T10:56:54.011Z,704.00
2023-06-14T10:57:55.425Z,701.00
2023-06-14T10:58:53.987Z,694.00
2023-06-14T10:59:53.953Z,691.00
2023-06-14T11:00:53.962Z,689.00
2023-06-14T11:01:53.970Z,685.00
2023-06-14T11:02:53.948Z,681.00
2023-06-14T11:03:53.897Z,675.00
2023-06-14T11:04:53.851Z,670.00
2023-06-14T11:05:53.950Z,668.00
2023-06-14T11:06:53.787Z,665.00
2023-06-14T11:07:53.746Z,661.00
2023-06-14T11:08:53.734Z,658.00
2023-06-14T11:09:53.708Z,653.00
2023-06-14T11:10:53.665Z,651.00
2023-06-14T11:11:53.636Z,650.00
2023-06-14T11:14:12.258Z,642.00
2023-06-14T11:15:12.300Z,653.00
2023-06-14T11:16:12.339Z,674.00
2023-06-14T11:17:12.282Z,672.00
2023-06-14T11:18:12.250Z,665.00
2023-06-14T11:19:12.261Z,659.00
2023-06-14T11:20:12.287Z,657.00
2023-06-14T11:21:12.276Z,655.00
2023-06-14T11:22:12.265Z,657.00
2023-06-14T11:23:12.246Z,658.00
2023-06-14T11:24:12.315Z,657.00
2023-06-14T11:25:12.269Z,658.00
2023-06-14T11:26:12.930Z,657.00
2023-06-14T11:27:12.473Z,658.00
2023-06-14T11:28:12.253Z,656.00
2023-06-14T11:29:12.248Z,656.00
2023-06-14T11:30:12.261Z,656.00
2023-06-14T11:31:12.275Z,653.00
2023-06-14T11:32:12.249Z,652.00
2023-06-14T11:33:12.260Z,650.00
2023-06-14T11:34:12.225Z,648.00
2023-06-14T11:35:12.231Z,647.00
2023-06-14T11:36:12.228Z,647.00
2023-06-14T11:37:12.290Z,645.00
2023-06-14T11:38:12.361Z,644.00
2023-06-14T11:39:12.439Z,644.00
2023-06-14T11:40:12.480Z,643.00
2023-06-14T11:41:12.528Z,641.00
2023-06-14T11:42:12.627Z,639.00
2023-06-14T11:43:12.651Z,638.00
2023-06-14T11:44:12.762Z,637.00
2023-06-14T11:45:12.766Z,634.00
2023-06-14T11:46:12.820Z,634.00
2023-06-14T11:47:12.973Z,634.00
2023-06-14T11:48:12.961Z,634.00
2023-06-14T11:49:12.986Z,633.00
2023-06-14T11:50:13.051Z,634.00
2023-06-14T11:51:13.129Z,632.00
2023-06-14T11:52:13.200Z,632.00
2023-06-14T11:53:13.240Z,627.00
2023-06-14T11:54:13.948Z,623.00
2023-06-14T11:55:13.478Z,622.00
2023-06-14T11:56:14.338Z,623.00
2023-06-14T11:57:13.443Z,620.00
2023-06-14T11:58:13.504Z,619.00
2023-06-14T11:59:13.577Z,620.00
2023-06-14T12:00:13.654Z,619.00
2023-06-14T12:01:13.672Z,618.00
2023-06-14T12:02:13.759Z,613.00
2023-06-14T12:03:13.816Z,613.00
2023-06-14T12:04:13.830Z,611.00
2023-06-14T12:05:14.057Z,609.00
2023-06-14T12:06:13.986Z,607.00
2023-06-14T12:07:14.034Z,607.00
2023-06-14T12:08:14.064Z,606.00
2023-06-14T12:09:14.637Z,602.00
2023-06-14T12:10:14.184Z,605.00
2023-06-14T12:11:14.257Z,605.00
2023-06-14T12:12:14.281Z,606.00
2023-06-14T12:13:14.359Z,604.00
2023-06-14T12:14:14.434Z,604.00
2023-06-14T12:15:14.886Z,604.00
2023-06-14T12:16:14.498Z,601.00
2023-06-14T12:17:14.611Z,601.00
2023-06-14T12:18:14.607Z,600.00
2023-06-14T12:19:14.675Z,600.00
2023-06-14T12:20:14.720Z,597.00
2023-06-14T12:21:14.763Z,602.00
2023-06-14T12:22:14.836Z,600.00
2023-06-14T12:23:14.841Z,599.00
2023-06-14T12:24:15.211Z,595.00
2023-06-14T12:25:15.327Z,593.00
2023-06-14T12:26:15.028Z,592.00
2023-06-14T12:27:15.092Z,591.00
2023-06-14T12:28:15.148Z,590.00
2023-06-14T12:29:15.153Z,589.00
2023-06-14T12:30:15.137Z,585.00